Time;durP1;ratioP1;P1;durP2;ratioP2;P2;SDS_P1;SDS_P2;PMS_P1;PMS_P2;Temp;Humidity;BMP_temperature;BMP_pressure;BME280_temperature;BME280_humidity;BME280_pressure;Samples;Min_cycle;Max_cycle;Signal;HPM_P1;HPM_P2
2022/11/03 00:00:10;;;;;;;407.33;327.02;;;;;;;18.83;40.17;99907.78;316531;31;871;-71
2022/11/03 00:00:20;;;;;;;409.60;338.00;;;;;;;18.85;39.85;99905.88;317534;31;865;-71
2022/11/03 00:00:31;;;;;;;411.53;340.97;;;;;;;18.84;39.83;99901.50;316360;31;2754;-71
2022/11/03 00:00:41;;;;;;;412.73;340.63;;;;;;;18.83;40.08;99902.47;317469;30;2870;-72
2022/11/03 00:00:51;;;;;;;410.07;329.63;;;;;;;18.84;40.27;99904.16;319922;30;1063;-71
2022/11/03 00:01:02;;;;;;;413.33;332.25;;;;;;;18.84;40.09;99903.31;317342;31;1894;-73
2022/11/03 00:01:12;;;;;;;415.13;329.33;;;;;;;18.85;39.81;99911.16;315342;31;1254;-72
2022/11/03 00:01:23;;;;;;;416.17;331.73;;;;;;;18.84;40.00;99912.13;309623;31;1086;-72
2022/11/03 00:01:37;;;;;;;412.97;328.80;;;;;;;18.85;40.10;99912.97;309506;31;1983;-72
2022/11/03 00:01:48;;;;;;;409.05;321.83;;;;;;;18.85;39.84;99916.47;310514;31;2677;-72
2022/11/03 00:01:59;;;;;;;412.23;325.20;;;;;;;18.85;39.65;99905.88;312364;31;3359;-72
2022/11/03 00:02:09;;;;;;;412.27;328.97;;;;;;;18.85;39.84;99908.50;311830;31;1203;-72
2022/11/03 00:02:20;;;;;;;411.00;331.48;;;;;;;18.85;39.71;99916.47;315209;31;926;-72
2022/11/03 00:02:30;;;;;;;410.30;337.13;;;;;;;18.84;39.59;99914.78;312903;31;3251;-72
2022/11/03 00:02:40;;;;;;;409.83;334.92;;;;;;;18.85;39.69;99916.47;310326;31;3521;-72
2022/11/03 00:02:51;;;;;;;408.57;335.43;;;;;;;18.84;39.71;99914.78;308623;32;1387;-72
2022/11/03 00:03:01;;;;;;;407.58;330.98;;;;;;;18.85;39.83;99918.28;308303;32;3260;-72
2022/11/03 00:03:12;;;;;;;408.87;335.37;;;;;;;18.85;39.79;99915.63;309693;31;2515;-72
2022/11/03 00:03:22;;;;;;;409.07;335.83;;;;;;;18.86;39.81;99912.88;310775;31;922;-72
2022/11/03 00:03:32;;;;;;;409.27;333.38;;;;;;;18.86;39.83;99915.53;313068;31;2432;-71
2022/11/03 00:03:43;;;;;;;409.43;331.87;;;;;;;18.85;39.70;99911.16;312939;31;2959;-71
2022/11/03 00:03:53;;;;;;;409.70;330.95;;;;;;;18.84;39.66;99906.81;311893;31;875;-71
2022/11/03 00:04:04;;;;;;;411.13;334.77;;;;;;;18.85;40.14;99912.97;308989;31;3808;-71
2022/11/03 00:04:16;;;;;;;412.98;340.02;;;;;;;18.85;40.01;99916.47;309633;31;3646;-71
2022/11/03 00:04:26;;;;;;;412.58;337.63;;;;;;;18.85;40.11;99905.88;311244;31;4462;-71
2022/11/03 00:04:37;;;;;;;412.43;337.67;;;;;;;18.86;40.04;99910.22;312225;31;2391;-71
2022/11/03 00:04:47;;;;;;;414.88;334.23;;;;;;;18.86;40.22;99915.53;305757;32;4715;-71
2022/11/03 00:06:03;;;;;;;414.03;334.87;;;;;;;18.88;40.45;99910.94;302567;32;4431;-71
2022/11/03 00:06:06;;;;;;;413.88;332.17;;;;;;;18.89;40.27;99910.00;306049;32;4279;-72
2022/11/03 00:06:16;;;;;;;416.88;336.88;;;;;;;18.89;39.81;99912.66;304435;32;5151;-72
2022/11/03 00:06:26;;;;;;;411.87;340.20;;;;;;;18.90;39.99;99911.69;302076;32;5468;-72
2022/11/03 00:06:38;;;;;;;410.35;338.20;;;;;;;18.89;39.85;99912.66;301133;32;821;-72
2022/11/03 00:06:53;;;;;;;413.65;344.00;;;;;;;18.89;40.09;99915.31;297860;32;6353;-72
2022/11/03 00:07:03;;;;;;;416.20;343.23;;;;;;;18.88;40.00;99910.94;298236;32;6297;-72
2022/11/03 00:07:20;;;;;;;416.60;345.30;;;;;;;18.89;40.05;99915.31;297663;33;6718;-72
2022/11/03 00:07:30;;;;;;;414.58;342.08;;;;;;;18.90;40.12;99913.50;296530;33;6570;-72
2022/11/03 00:07:40;;;;;;;410.57;337.00;;;;;;;18.89;40.13;99920.59;294324;33;4626;-72
2022/11/03 00:07:51;;;;;;;407.67;331.53;;;;;;;18.89;40.17;99915.31;293992;33;1647;-72
2022/11/03 00:08:02;;;;;;;407.73;332.00;;;;;;;18.89;40.01;99912.66;294074;33;4732;-73
2022/11/03 00:08:12;;;;;;;408.67;334.73;;;;;;;18.90;39.95;99921.47;291557;33;7036;-71
2022/11/03 00:08:23;;;;;;;408.60;332.30;;;;;;;18.89;39.92;99915.31;289263;34;962;-71
2022/11/03 00:08:40;;;;;;;409.98;332.30;;;;;;;18.90;40.41;99914.34;287809;34;7677;-71
2022/11/03 00:08:50;;;;;;;411.17;334.75;;;;;;;18.90;40.56;99910.84;287480;34;931;-72
2022/11/03 00:09:03;;;;;;;409.70;334.30;;;;;;;18.90;41.50;99924.97;285306;34;8336;-72
2022/11/03 00:09:14;;;;;;;409.60;334.30;;;;;;;18.89;40.70;99915.31;284009;34;8786;-72
2022/11/03 00:09:28;;;;;;;409.75;332.48;;;;;;;18.90;39.87;99914.34;284964;34;8450;-71
2022/11/03 00:09:38;;;;;;;410.10;329.00;;;;;;;18.90;40.22;99916.16;280992;35;1037;-71
2022/11/03 00:09:49;;;;;;;411.88;333.67;;;;;;;18.89;40.39;99925.91;279135;35;8981;-71
2022/11/03 00:09:59;;;;;;;411.80;338.00;;;;;;;18.89;40.33;99919.75;277665;35;7085;-72
2022/11/03 00:10:09;;;;;;;411.07;343.13;;;;;;;18.88;40.10;99918.06;277785;35;8522;-72
2022/11/03 00:10:20;;;;;;;409.47;338.57;;;;;;;18.87;40.31;99919.88;273895;36;1610;-72
2022/11/03 00:12:02;;;;;;;399.04;317.44;;;;;;;18.90;40.64;99914.34;2499328;27;20481;-71
2022/11/03 00:12:12;;;;;;;410.93;337.00;;;;;;;18.91;41.07;99915.19;351479;28;1206;-71
2022/11/03 00:12:22;;;;;;;409.25;333.48;;;;;;;18.90;40.92;99914.34;350468;28;901;-71
2022/11/03 00:12:33;;;;;;;409.23;336.00;;;;;;;18.90;41.03;99924.97;349073;28;903;-71
2022/11/03 00:12:43;;;;;;;409.33;333.73;;;;;;;18.90;41.34;99914.34;347553;28;1271;-71
2022/11/03 00:12:54;;;;;;;411.87;337.00;;;;;;;18.91;40.59;99915.19;351672;28;1739;-72
2022/11/03 00:13:04;;;;;;;409.60;331.37;;;;;;;18.91;40.71;99910.75;351770;28;934;-72
2022/11/03 00:13:14;;;;;;;409.60;332.88;;;;;;;18.92;40.86;99906.28;348975;28;1230;-72
2022/11/03 00:13:25;;;;;;;408.47;336.20;;;;;;;18.91;40.60;99916.03;348872;28;1832;-72
2022/11/03 00:13:36;;;;;;;411.58;346.15;;;;;;;18.92;40.59;99917.75;347593;28;1517;-72
2022/11/03 00:13:46;;;;;;;412.48;347.08;;;;;;;18.93;40.46;99913.28;350467;28;946;-72
2022/11/03 00:13:57;;;;;;;413.57;342.27;;;;;;;18.93;40.41;99907.97;348824;28;1264;-72
2022/11/03 00:14:10;;;;;;;412.15;338.77;;;;;;;18.92;40.51;99912.44;347601;28;877;-72
2022/11/03 00:14:21;;;;;;;409.08;334.98;;;;;;;18.93;40.38;99919.44;347539;28;1316;-72
2022/11/03 00:14:31;;;;;;;407.45;329.45;;;;;;;18.94;40.61;99914.97;348736;28;1863;-72
2022/11/03 00:14:41;;;;;;;408.50;332.03;;;;;;;18.93;40.51;99914.13;349635;28;1870;-72
2022/11/03 00:14:52;;;;;;;409.63;332.00;;;;;;;18.94;40.66;99912.31;348871;28;1782;-72
2022/11/03 00:15:02;;;;;;;412.17;340.50;;;;;;;18.94;40.62;99915.81;349360;28;967;-72
2022/11/03 00:15:13;;;;;;;411.92;343.08;;;;;;;18.96;40.34;99917.53;346198;28;1412;-72
2022/11/03 00:15:23;;;;;;;412.90;346.00;;;;;;;18.97;40.66;99921.88;347475;28;1328;-72
2022/11/03 00:15:34;;;;;;;413.98;344.55;;;;;;;18.97;40.23;99913.91;347610;28;998;-72
2022/11/03 00:15:48;;;;;;;417.40;346.27;;;;;;;18.97;40.22;99919.22;348587;28;1216;-72
2022/11/03 00:15:58;;;;;;;414.38;344.80;;;;;;;18.98;40.37;99915.63;347305;28;3813;-72
2022/11/03 00:16:10;;;;;;;415.52;344.70;;;;;;;18.96;40.74;99913.06;345751;28;5077;-72
2022/11/03 00:16:20;;;;;;;416.42;347.50;;;;;;;18.97;40.31;99912.13;345793;28;3319;-72
2022/11/03 00:16:31;;;;;;;418.05;352.75;;;;;;;18.97;40.48;99911.25;340606;29;2130;-72
2022/11/03 00:16:41;;;;;;;417.93;353.47;;;;;;;18.98;40.10;99910.31;340022;28;1199;-72
2022/11/03 00:16:52;;;;;;;415.25;351.67;;;;;;;18.98;39.96;99910.31;343603;28;833;-72
2022/11/03 00:17:02;;;;;;;414.98;350.63;;;;;;;18.98;40.07;99912.97;343472;28;1205;-72
2022/11/03 00:17:12;;;;;;;411.57;347.17;;;;;;;18.99;40.07;99909.34;342251;28;966;-72
2022/11/03 00:17:23;;;;;;;413.93;349.83;;;;;;;18.99;40.19;99917.31;344222;28;932;-72
2022/11/03 00:17:33;;;;;;;416.95;351.80;;;;;;;19.00;40.01;99919.00;344988;28;962;-72
2022/11/03 00:17:45;;;;;;;416.80;350.87;;;;;;;18.99;39.81;99914.66;343629;28;893;-72
2022/11/03 00:17:55;;;;;;;415.73;346.33;;;;;;;19.00;39.97;99911.06;343293;28;1442;-71
2022/11/03 00:18:06;;;;;;;414.87;347.27;;;;;;;19.00;40.02;99916.34;343631;28;1081;-71
2022/11/03 00:18:16;;;;;;;416.55;355.45;;;;;;;19.00;40.07;99913.69;346237;28;954;-71
2022/11/03 00:18:27;;;;;;;415.23;357.50;;;;;;;19.00;39.62;99914.56;346100;28;1065;-71
2022/11/03 00:18:37;;;;;;;413.75;355.25;;;;;;;19.01;39.90;99918.91;343302;28;1122;-72
2022/11/03 00:18:48;;;;;;;415.20;350.73;;;;;;;19.01;39.75;99915.41;340833;29;1376;-72
2022/11/03 00:18:58;;;;;;;414.87;350.57;;;;;;;19.01;40.06;99916.25;342158;28;884;-72
2022/11/03 00:19:09;;;;;;;415.17;351.07;;;;;;;19.01;40.20;99918.06;343490;28;1331;-72
2022/11/03 00:19:19;;;;;;;415.67;357.08;;;;;;;19.00;40.92;99917.19;342213;28;928;-72
2022/11/03 00:19:30;;;;;;;416.58;351.98;;;;;;;18.99;40.08;99910.19;340308;29;1702;-72
2022/11/03 00:19:40;;;;;;;415.93;349.27;;;;;;;18.98;39.96;99920.91;340689;28;1400;-72
2022/11/03 00:19:50;;;;;;;412.37;344.87;;;;;;;18.99;40.02;99906.69;339492;29;1539;-72
2022/11/03 00:20:01;;;;;;;410.50;341.27;;;;;;;19.00;40.08;99913.69;335612;29;985;-72
2022/11/03 00:20:11;;;;;;;411.63;346.30;;;;;;;19.00;40.03;99913.69;335592;29;1464;-72
2022/11/03 00:20:22;;;;;;;414.13;355.35;;;;;;;19.00;40.06;99914.56;336643;29;1317;-72
2022/11/03 00:20:32;;;;;;;415.17;359.60;;;;;;;18.99;40.35;99918.16;336959;29;1200;-71
2022/11/03 00:20:42;;;;;;;414.45;357.02;;;;;;;19.00;40.19;99919.84;336307;29;1539;-71
2022/11/03 00:21:00;;;;;;;412.00;348.53;;;;;;;19.02;40.37;99919.75;337036;29;1907;-71
2022/11/03 00:21:12;;;;;;;412.85;343.85;;;;;;;19.01;39.75;99913.59;336942;29;954;-71
2022/11/03 00:21:22;;;;;;;414.02;346.48;;;;;;;19.00;39.75;99908.41;335629;29;1759;-71
2022/11/03 00:21:32;;;;;;;414.90;353.02;;;;;;;19.00;40.01;99916.34;337024;29;1187;-71
2022/11/03 00:21:43;;;;;;;416.33;354.80;;;;;;;19.00;40.56;99913.69;334285;29;956;-71
2022/11/03 00:21:53;;;;;;;414.95;353.15;;;;;;;19.00;40.03;99914.56;334491;29;1405;-72
2022/11/03 00:22:04;;;;;;;413.63;350.67;;;;;;;18.99;39.47;99914.66;335663;29;904;-72
2022/11/03 00:22:14;;;;;;;413.20;349.73;;;;;;;18.99;39.58;99914.66;332934;29;1957;-71
2022/11/03 00:22:25;;;;;;;414.93;353.80;;;;;;;18.99;40.07;99912.00;329023;29;1993;-71
2022/11/03 00:22:35;;;;;;;412.40;348.20;;;;;;;18.99;39.92;99918.16;328084;30;1258;-71
2022/11/03 00:22:45;;;;;;;413.80;351.60;;;;;;;19.00;39.92;99914.56;329579;29;1553;-71
2022/11/03 00:22:56;;;;;;;412.95;347.05;;;;;;;19.02;39.88;99917.09;328579;30;2300;-71
2022/11/03 00:23:06;;;;;;;414.57;351.80;;;;;;;19.02;39.94;99919.75;327999;29;1872;-71
2022/11/03 00:23:17;;;;;;;413.65;354.40;;;;;;;19.02;39.78;99917.09;330291;29;1234;-71
2022/11/03 00:23:28;;;;;;;415.30;358.67;;;;;;;19.02;39.64;99911.78;331344;29;934;-71
2022/11/03 00:23:40;;;;;;;415.63;358.23;;;;;;;19.01;39.45;99912.75;327071;30;1315;-71
2022/11/03 00:23:51;;;;;;;413.33;347.25;;;;;;;19.01;39.45;99915.41;325420;30;1735;-71
2022/11/03 00:24:01;;;;;;;411.67;344.23;;;;;;;19.02;39.62;99919.75;324612;30;961;-72
2022/11/03 00:24:12;;;;;;;414.20;350.65;;;;;;;19.03;39.11;99918.78;325649;29;2631;-72
2022/11/03 00:24:22;;;;;;;414.57;348.73;;;;;;;19.03;39.38;99919.63;327700;30;2424;-72
2022/11/03 00:24:33;;;;;;;414.65;352.63;;;;;;;19.04;39.62;99915.19;328371;30;1911;-72
2022/11/03 00:24:43;;;;;;;413.73;345.73;;;;;;;19.04;39.76;99912.53;327581;30;2296;-72
2022/11/03 00:24:53;;;;;;;414.63;346.92;;;;;;;19.04;40.02;99915.19;322757;30;2766;-72
2022/11/03 00:25:04;;;;;;;410.80;336.33;;;;;;;19.05;39.58;99917.72;321609;30;1070;-72
2022/11/03 00:25:14;;;;;;;406.05;325.50;;;;;;;19.05;39.29;99920.38;318000;30;4354;-71
2022/11/03 00:25:25;;;;;;;401.60;317.77;;;;;;;19.04;39.50;99915.19;319338;30;5462;-71
2022/11/03 00:25:35;;;;;;;400.45;316.08;;;;;;;19.03;39.18;99916.13;318521;31;1991;-72
2022/11/03 00:25:46;;;;;;;402.70;319.00;;;;;;;19.02;39.31;99915.28;316093;31;3053;-72
2022/11/03 00:26:15;;;;;;;401.77;314.83;;;;;;;19.03;39.92;99916.13;316454;31;2273;-72
2022/11/03 00:26:27;;;;;;;400.55;316.27;;;;;;;19.03;39.39;99914.34;312310;31;2930;-72
2022/11/03 00:26:37;;;;;;;403.08;320.40;;;;;;;19.03;39.51;99914.34;309130;31;3525;-72
2022/11/03 00:26:48;;;;;;;402.65;320.40;;;;;;;19.03;39.87;99921.44;309717;31;912;-72
2022/11/03 00:26:58;;;;;;;401.57;319.87;;;;;;;19.04;39.68;99920.50;307826;31;3386;-72
2022/11/03 00:27:09;;;;;;;401.70;318.83;;;;;;;19.05;39.76;99923.03;309949;31;3830;-72
2022/11/03 00:27:19;;;;;;;403.57;317.43;;;;;;;19.05;39.49;99917.72;310682;31;1316;-72
2022/11/03 00:27:30;;;;;;;402.52;312.50;;;;;;;19.06;39.74;99918.56;309394;31;3319;-72
2022/11/03 00:27:40;;;;;;;401.47;312.73;;;;;;;19.07;39.74;99914.94;311194;31;2408;-72
2022/11/03 00:27:54;;;;;;;399.20;311.07;;;;;;;19.07;39.44;99922.91;314127;31;942;-72
2022/11/03 00:28:05;;;;;;;397.50;310.27;;;;;;;19.07;39.47;99915.78;309711;31;864;-72
2022/11/03 00:28:15;;;;;;;397.87;311.50;;;;;;;19.08;39.45;99913.97;310135;31;3007;-72
2022/11/03 00:28:25;;;;;;;401.33;314.73;;;;;;;19.08;39.59;99914.81;307656;31;3728;-72
2022/11/03 00:28:36;;;;;;;402.73;314.33;;;;;;;19.06;39.65;99914.09;308951;31;4019;-72
2022/11/03 00:28:51;;;;;;;402.73;312.73;;;;;;;19.07;39.38;99920.25;309729;31;834;-72
2022/11/03 00:29:11;;;;;;;400.00;312.83;;;;;;;19.06;39.29;99918.56;303301;32;979;-72
2022/11/03 00:29:23;;;;;;;401.92;315.27;;;;;;;19.07;39.67;99920.25;300567;32;4873;-72
2022/11/03 00:29:34;;;;;;;401.27;312.90;;;;;;;19.06;39.46;99918.56;302342;32;1883;-72
2022/11/03 00:29:44;;;;;;;400.77;313.38;;;;;;;19.06;39.65;99919.41;303004;32;4748;-72
2022/11/03 00:29:54;;;;;;;401.17;315.03;;;;;;;19.06;39.57;99918.56;302922;32;3256;-72
2022/11/03 00:30:05;;;;;;;402.77;315.17;;;;;;;19.05;39.75;99917.72;299091;32;1414;-72
2022/11/03 00:30:16;;;;;;;401.93;312.17;;;;;;;19.06;39.19;99923.88;299035;33;1555;-72
2022/11/03 00:30:26;;;;;;;400.13;306.80;;;;;;;19.04;39.30;99917.84;295992;33;4305;-72
2022/11/03 00:30:38;;;;;;;400.03;307.63;;;;;;;19.06;39.13;99918.56;294893;33;5232;-72
2022/11/03 00:30:48;;;;;;;399.60;307.98;;;;;;;19.06;39.29;99921.22;295944;33;1511;-72
2022/11/03 00:31:08;;;;;;;399.50;313.77;;;;;;;19.07;39.32;99914.94;295255;33;5635;-72
2022/11/03 00:31:37;;;;;;;399.80;320.58;;;;;;;19.06;39.68;99922.03;295211;33;871;-72
2022/11/03 00:31:48;;;;;;;400.17;317.33;;;;;;;19.06;39.59;99921.22;293089;33;1629;-72
2022/11/03 00:31:58;;;;;;;400.73;317.13;;;;;;;19.05;39.49;99919.53;290966;33;6751;-72
2022/11/03 00:32:09;;;;;;;400.90;313.85;;;;;;;19.06;39.30;99924.69;286979;34;4671;-72
2022/11/03 00:32:19;;;;;;;401.50;314.43;;;;;;;19.07;39.41;99917.59;286535;34;975;-72
2022/11/03 00:32:29;;;;;;;401.55;314.73;;;;;;;19.08;39.36;99919.28;285154;34;4642;-72
2022/11/03 00:32:40;;;;;;;401.37;319.20;;;;;;;19.08;39.01;99925.44;285512;34;6539;-72
2022/11/03 00:32:50;;;;;;;401.35;320.77;;;;;;;19.09;39.09;99918.31;287387;34;1413;-72
2022/11/03 00:33:01;;;;;;;401.60;320.90;;;;;;;19.09;39.08;99923.63;281932;34;8833;-72
2022/11/03 00:33:11;;;;;;;401.33;319.23;;;;;;;19.08;39.53;99921.94;281104;34;8304;-72
2022/11/03 00:33:25;;;;;;;401.50;315.45;;;;;;;19.07;39.47;99920.25;280513;35;9551;-72
2022/11/03 00:33:36;;;;;;;403.10;312.52;;;;;;;19.06;39.05;99924.69;279217;35;1016;-72
2022/11/03 00:33:46;;;;;;;400.88;306.05;;;;;;;19.05;39.31;99917.72;277384;35;1493;-72
2022/11/03 00:33:57;;;;;;;400.63;309.07;;;;;;;19.07;39.44;99928.19;275297;35;9806;-72
2022/11/03 00:34:08;;;;;;;400.58;310.95;;;;;;;19.07;39.29;99923.75;273103;35;9470;-72
2022/11/03 00:36:04;;;;;;;391.34;296.07;;;;;;;19.07;39.18;99926.41;2488888;27;20491;-71
2022/11/03 00:36:45;;;;;;;402.85;312.75;;;;;;;19.06;39.34;99918.56;351715;28;1347;-71
2022/11/03 00:36:55;;;;;;;399.27;307.48;;;;;;;19.08;39.49;99916.63;346835;28;1096;-71
2022/11/03 00:37:05;;;;;;;397.73;306.80;;;;;;;19.09;39.56;99924.47;347581;28;1376;-72
2022/11/03 00:37:16;;;;;;;398.03;305.60;;;;;;;19.09;39.44;99918.31;346252;28;1324;-72
2022/11/03 00:37:26;;;;;;;400.43;308.13;;;;;;;19.10;39.07;99922.69;346116;28;868;-72
2022/11/03 00:37:36;;;;;;;399.85;306.52;;;;;;;19.08;39.04;99917.47;346373;28;1217;-72
2022/11/03 00:37:47;;;;;;;400.17;309.10;;;;;;;19.07;39.30;99925.53;347034;28;1546;-72
2022/11/03 00:37:57;;;;;;;398.73;311.05;;;;;;;19.08;39.09;99916.63;344858;28;971;-72
2022/11/03 00:38:08;;;;;;;400.90;315.83;;;;;;;19.06;39.22;99921.22;346172;28;1192;-71
2022/11/03 00:38:18;;;;;;;399.23;313.13;;;;;;;19.05;39.22;99922.19;348828;28;1382;-71
2022/11/03 00:38:29;;;;;;;401.17;311.13;;;;;;;19.06;39.25;99924.69;348294;28;1759;-71
2022/11/03 00:38:39;;;;;;;399.42;308.65;;;;;;;19.07;38.83;99920.25;346232;28;827;-71
2022/11/03 00:38:50;;;;;;;399.67;310.23;;;;;;;19.07;39.09;99920.25;344867;28;1196;-71
2022/11/03 00:39:00;;;;;;;399.63;313.63;;;;;;;19.08;39.13;99922.78;346167;28;1652;-71
2022/11/03 00:39:11;;;;;;;401.63;315.80;;;;;;;19.09;38.92;99918.31;345854;28;1938;-72
2022/11/03 00:39:22;;;;;;;401.45;312.38;;;;;;;19.07;38.84;99918.44;346005;28;1617;-72
2022/11/03 00:39:32;;;;;;;404.45;311.17;;;;;;;19.08;38.93;99920.13;347137;28;1937;-72
2022/11/03 00:39:42;;;;;;;403.37;310.37;;;;;;;19.08;39.10;99925.44;347340;28;1360;-72
2022/11/03 00:39:53;;;;;;;403.80;312.63;;;;;;;19.08;39.04;99920.13;346104;28;1132;-72
2022/11/03 00:40:03;;;;;;;403.00;317.48;;;;;;;19.08;39.27;99928.09;343623;28;924;-72
2022/11/03 00:40:14;;;;;;;403.92;316.38;;;;;;;19.10;39.11;99925.34;346148;28;1352;-72
2022/11/03 00:40:24;;;;;;;405.30;313.07;;;;;;;19.09;39.21;99929.78;346083;28;1298;-72
2022/11/03 00:40:35;;;;;;;402.42;310.92;;;;;;;19.10;38.81;99920.03;345490;28;852;-72
2022/11/03 00:40:45;;;;;;;399.07;311.40;;;;;;;19.09;39.07;99920.97;346167;28;954;-72
2022/11/03 00:40:56;;;;;;;397.80;312.80;;;;;;;19.09;38.92;99919.19;344498;28;1801;-72
2022/11/03 00:41:07;;;;;;;398.63;315.92;;;;;;;19.09;39.16;99923.63;346261;28;1287;-72
2022/11/03 00:41:19;;;;;;;399.87;315.80;;;;;;;19.07;39.21;99920.25;346272;28;1009;-72
2022/11/03 00:41:30;;;;;;;401.35;316.02;;;;;;;19.08;39.37;99919.28;344799;28;1101;-72
2022/11/03 00:41:40;;;;;;;403.73;312.87;;;;;;;19.08;39.21;99921.94;345113;28;964;-72
2022/11/03 00:41:52;;;;;;;403.25;313.98;;;;;;;19.08;39.05;99921.94;340944;29;946;-72
2022/11/03 00:42:02;;;;;;;403.40;315.45;;;;;;;19.07;39.18;99915.78;340796;29;1069;-72
2022/11/03 00:42:13;;;;;;;402.97;315.03;;;;;;;19.07;39.64;99922.91;340636;28;1375;-72
2022/11/03 00:42:23;;;;;;;401.17;313.67;;;;;;;19.06;39.47;99921.22;342019;28;1304;-72
2022/11/03 00:42:36;;;;;;;399.05;310.50;;;;;;;19.07;39.23;99920.25;342219;28;936;-72
2022/11/03 00:42:46;;;;;;;400.95;318.02;;;;;;;19.08;39.65;99916.63;341828;28;1341;-72
2022/11/03 00:42:57;;;;;;;403.80;317.90;;;;;;;19.08;39.12;99917.47;338716;29;1086;-71
2022/11/03 00:43:07;;;;;;;403.35;316.35;;;;;;;19.07;39.19;99922.91;339591;29;1248;-71
2022/11/03 00:43:17;;;;;;;401.90;310.83;;;;;;;19.07;39.17;99921.09;339626;29;929;-72
2022/11/03 00:43:30;;;;;;;399.93;313.23;;;;;;;19.04;39.12;99921.34;337844;29;3366;-71
2022/11/03 00:43:40;;;;;;;401.25;316.33;;;;;;;19.05;39.31;99916.88;338398;28;3006;-72
2022/11/03 00:43:51;;;;;;;401.08;315.75;;;;;;;19.04;39.14;99921.34;339286;29;2115;-72
2022/11/03 00:44:01;;;;;;;404.23;320.83;;;;;;;19.03;38.95;99918.78;339090;29;2521;-72
2022/11/03 00:44:12;;;;;;;402.05;316.20;;;;;;;19.03;38.94;99908.19;338934;29;3194;-72
2022/11/03 00:44:22;;;;;;;400.70;312.40;;;;;;;19.04;39.06;99915.19;337361;29;1748;-71
2022/11/03 00:44:32;;;;;;;398.37;309.43;;;;;;;19.04;39.40;99921.34;335817;29;1842;-71
2022/11/03 00:44:43;;;;;;;397.85;308.38;;;;;;;19.04;38.86;99921.34;337350;29;1595;-71
2022/11/03 00:44:53;;;;;;;400.17;309.83;;;;;;;19.04;38.86;99917.84;336798;29;1980;-71
2022/11/03 00:45:04;;;;;;;399.42;307.20;;;;;;;19.06;39.25;99921.22;338884;29;980;-71
2022/11/03 00:45:14;;;;;;;400.80;311.67;;;;;;;19.06;39.42;99919.41;339449;29;936;-71
2022/11/03 00:45:25;;;;;;;398.15;311.48;;;;;;;19.07;39.35;99920.25;338156;29;1710;-71
2022/11/03 00:45:35;;;;;;;398.63;311.63;;;;;;;19.07;39.29;99914.94;338883;29;932;-71
2022/11/03 00:45:46;;;;;;;398.67;310.10;;;;;;;19.07;39.08;99921.09;338856;29;1536;-71
2022/11/03 00:45:56;;;;;;;400.20;311.80;;;;;;;19.08;39.04;99917.47;341074;28;1499;-71
2022/11/03 00:46:07;;;;;;;401.23;312.13;;;;;;;19.06;39.39;99921.22;335647;29;1663;-71
2022/11/03 00:46:18;;;;;;;401.47;311.97;;;;;;;19.06;38.96;99923.88;332787;29;1817;-71
2022/11/03 00:46:29;;;;;;;399.92;308.92;;;;;;;19.05;39.01;99916.88;335493;29;1949;-71
2022/11/03 00:46:39;;;;;;;399.40;307.55;;;;;;;19.05;40.22;99916.88;339822;29;1991;-71
2022/11/03 00:46:50;;;;;;;397.37;306.53;;;;;;;19.06;39.71;99918.56;340936;29;870;-71
2022/11/03 00:47:00;;;;;;;398.70;307.97;;;;;;;19.04;39.54;99920.50;335633;29;2284;-71
2022/11/03 00:47:10;;;;;;;398.90;306.67;;;;;;;19.04;39.75;99920.50;333788;29;1836;-72
2022/11/03 00:47:21;;;;;;;400.43;308.33;;;;;;;19.04;39.60;99917.84;336880;29;869;-71
2022/11/03 00:47:31;;;;;;;401.42;312.27;;;;;;;19.04;39.30;99920.50;336733;29;1215;-71
2022/11/03 00:48:28;;;;;;;402.23;316.80;;;;;;;19.04;39.11;99915.19;337725;29;1792;-72
2022/11/03 00:48:31;;;;;;;404.16;320.88;;;;;;;19.03;39.04;99911.69;331882;29;2064;-70
2022/11/03 00:48:41;;;;;;;400.30;308.52;;;;;;;19.04;39.17;99920.50;324829;30;2479;-71
2022/11/03 00:48:52;;;;;;;398.98;312.63;;;;;;;19.05;39.38;99922.19;320933;30;1225;-71
2022/11/03 00:49:03;;;;;;;401.07;316.43;;;;;;;19.05;39.22;99923.03;322986;30;2905;-71
2022/11/03 00:49:13;;;;;;;402.42;316.85;;;;;;;19.05;39.04;99916.88;323672;30;2900;-71
2022/11/03 00:49:23;;;;;;;401.97;313.63;;;;;;;19.05;39.08;99923.03;324297;30;1857;-71
2022/11/03 00:49:34;;;;;;;400.90;312.58;;;;;;;19.05;39.52;99920.38;323057;30;1837;-71
2022/11/03 00:49:44;;;;;;;401.07;317.57;;;;;;;19.05;39.68;99916.88;320943;30;1419;-71
2022/11/03 00:49:54;;;;;;;401.80;317.90;;;;;;;19.04;39.62;99918.69;321722;30;1991;-71
2022/11/03 00:50:05;;;;;;;400.67;316.90;;;;;;;19.03;39.15;99918.78;321077;30;948;-71
2022/11/03 00:50:15;;;;;;;398.20;312.65;;;;;;;19.00;39.23;99916.34;320505;30;2826;-71
2022/11/03 00:50:26;;;;;;;398.70;313.13;;;;;;;19.00;39.06;99913.69;321894;30;2865;-71
2022/11/03 00:50:36;;;;;;;402.77;320.42;;;;;;;19.00;39.18;99914.56;322085;30;1325;-71
2022/11/03 00:50:47;;;;;;;404.10;324.03;;;;;;;19.01;39.58;99918.91;322581;30;3177;-70
2022/11/03 00:51:13;;;;;;;405.63;325.53;;;;;;;19.01;39.18;99921.56;322187;30;3371;-70
2022/11/03 00:51:25;;;;;;;399.38;312.48;;;;;;;19.00;39.24;99914.56;319512;30;3192;-70
2022/11/03 00:51:35;;;;;;;400.73;315.70;;;;;;;19.01;39.34;99915.41;317536;31;1040;-71
2022/11/03 00:51:45;;;;;;;399.83;310.97;;;;;;;19.01;39.42;99915.41;314953;31;2370;-71
2022/11/03 00:51:56;;;;;;;400.77;312.40;;;;;;;19.00;39.34;99922.50;313113;31;2176;-71
2022/11/03 00:52:06;;;;;;;400.00;311.20;;;;;;;19.01;39.19;99912.75;315275;31;882;-70
2022/11/03 00:52:17;;;;;;;398.87;311.90;;;;;;;19.01;39.17;99915.41;313819;31;2850;-70
2022/11/03 00:52:27;;;;;;;399.90;313.85;;;;;;;19.00;38.93;99913.69;313435;31;3653;-70
2022/11/03 00:52:37;;;;;;;400.37;312.67;;;;;;;19.01;39.28;99915.41;313012;31;1267;-70
2022/11/03 00:52:48;;;;;;;400.65;313.08;;;;;;;19.02;39.26;99917.09;305109;32;4339;-70
2022/11/03 00:52:58;;;;;;;401.07;315.37;;;;;;;19.02;39.22;99917.09;306259;32;4832;-70
2022/11/03 00:53:08;;;;;;;401.47;315.67;;;;;;;19.02;39.31;99914.44;305323;32;5740;-72
2022/11/03 00:53:19;;;;;;;402.00;316.73;;;;;;;19.01;39.13;99913.59;304076;32;5336;-72
2022/11/03 00:53:30;;;;;;;402.47;313.90;;;;;;;19.01;39.09;99916.25;302014;32;4686;-72
2022/11/03 00:53:42;;;;;;;402.42;312.30;;;;;;;19.01;39.15;99910.94;301449;32;4722;-72
2022/11/03 00:53:56;;;;;;;400.27;310.52;;;;;;;18.99;38.87;99915.50;304376;32;1015;-72
2022/11/03 00:54:07;;;;;;;401.27;312.73;;;;;;;19.00;39.27;99916.34;300012;32;1429;-72
2022/11/03 00:54:17;;;;;;;400.57;311.93;;;;;;;18.99;39.32;99915.50;298525;32;3258;-71
2022/11/03 00:54:27;;;;;;;401.25;312.88;;;;;;;19.01;39.52;99910.09;298789;32;4198;-71
2022/11/03 00:54:38;;;;;;;400.30;308.23;;;;;;;19.01;39.65;99916.25;298045;32;5055;-72
2022/11/03 00:54:48;;;;;;;400.80;311.25;;;;;;;19.02;39.43;99917.94;301604;32;1242;-72
2022/11/03 00:54:59;;;;;;;398.77;311.07;;;;;;;19.02;39.30;99920.59;297208;32;6380;-72
2022/11/03 00:55:09;;;;;;;400.13;313.27;;;;;;;19.02;39.06;99917.09;293163;33;6441;-71
2022/11/03 00:55:19;;;;;;;400.30;309.27;;;;;;;19.00;39.31;99914.56;293238;33;840;-72
2022/11/03 00:55:30;;;;;;;403.63;311.07;;;;;;;19.01;39.22;99915.41;294332;33;6452;-72
2022/11/03 00:55:40;;;;;;;401.48;309.02;;;;;;;19.01;39.46;99915.41;295469;33;7035;-72
2022/11/03 00:55:51;;;;;;;402.10;312.47;;;;;;;19.02;39.49;99911.78;293240;33;1263;-72
2022/11/03 00:56:01;;;;;;;400.70;315.80;;;;;;;19.01;39.53;99910.09;291609;33;6326;-72
2022/11/03 00:56:19;;;;;;;402.40;319.37;;;;;;;19.01;39.79;99916.25;289856;33;4691;-71